sensor_id;sensor_type;location;lat;lon;timestamp;P1;durP1;ratioP1;P2;durP2;ratioP2
77170;SDS011;66144;50.020;14.422;2023-04-25T00:01:25;3.10;;;1.70;;
77170;SDS011;66144;50.020;14.422;2023-04-25T00:03:53;4.18;;;1.77;;
77170;SDS011;66144;50.020;14.422;2023-04-25T00:06:23;4.00;;;1.70;;
77170;SDS011;66144;50.020;14.422;2023-04-25T00:08:51;3.40;;;1.83;;
77170;SDS011;66144;50.020;14.422;2023-04-25T00:11:19;3.38;;;1.70;;
77170;SDS011;66144;50.020;14.422;2023-04-25T00:13:46;3.42;;;1.95;;
77170;SDS011;66144;50.020;14.422;2023-04-25T00:16:16;3.85;;;1.70;;
77170;SDS011;66144;50.020;14.422;2023-04-25T00:18:44;4.05;;;1.70;;
77170;SDS011;66144;50.020;14.422;2023-04-25T00:21:17;2.92;;;2.03;;
77170;SDS011;66144;50.020;14.422;2023-04-25T00:23:48;3.08;;;2.08;;
77170;SDS011;66144;50.020;14.422;2023-04-25T00:26:19;3.38;;;2.00;;
77170;SDS011;66144;50.020;14.422;2023-04-25T00:28:47;3.03;;;1.73;;
77170;SDS011;66144;50.020;14.422;2023-04-25T00:31:14;3.50;;;1.73;;
77170;SDS011;66144;50.020;14.422;2023-04-25T00:33:42;4.72;;;1.80;;
77170;SDS011;66144;50.020;14.422;2023-04-25T00:36:10;3.90;;;2.20;;
77170;SDS011;66144;50.020;14.422;2023-04-25T00:38:37;3.10;;;1.90;;
77170;SDS011;66144;50.020;14.422;2023-04-25T00:41:08;5.35;;;1.92;;
77170;SDS011;66144;50.020;14.422;2023-04-25T00:43:36;3.10;;;2.00;;
77170;SDS011;66144;50.020;14.422;2023-04-25T00:46:06;4.18;;;1.67;;
77170;SDS011;66144;50.020;14.422;2023-04-25T00:48:34;3.60;;;2.20;;
77170;SDS011;66144;50.020;14.422;2023-04-25T00:51:02;3.38;;;1.90;;
77170;SDS011;66144;50.020;14.422;2023-04-25T00:53:32;4.25;;;2.00;;
77170;SDS011;66144;50.020;14.422;2023-04-25T00:55:59;3.30;;;2.05;;
77170;SDS011;66144;50.020;14.422;2023-04-25T00:58:27;3.10;;;2.03;;
77170;SDS011;66144;50.020;14.422;2023-04-25T01:00:56;3.03;;;1.80;;
77170;SDS011;66144;50.020;14.422;2023-04-25T01:03:25;3.92;;;2.00;;
77170;SDS011;66144;50.020;14.422;2023-04-25T01:05:54;5.70;;;2.13;;
77170;SDS011;66144;50.020;14.422;2023-04-25T01:08:23;3.45;;;2.10;;
77170;SDS011;66144;50.020;14.422;2023-04-25T01:10:51;4.68;;;2.38;;
77170;SDS011;66144;50.020;14.422;2023-04-25T01:13:19;4.30;;;1.90;;
77170;SDS011;66144;50.020;14.422;2023-04-25T01:15:47;3.47;;;1.83;;
77170;SDS011;66144;50.020;14.422;2023-04-25T01:18:15;3.22;;;1.75;;
77170;SDS011;66144;50.020;14.422;2023-04-25T01:20:44;3.63;;;2.00;;
77170;SDS011;66144;50.020;14.422;2023-04-25T01:23:13;4.93;;;2.25;;
77170;SDS011;66144;50.020;14.422;2023-04-25T01:25:42;4.78;;;1.95;;
77170;SDS011;66144;50.020;14.422;2023-04-25T01:28:10;3.13;;;1.95;;
77170;SDS011;66144;50.020;14.422;2023-04-25T01:30:38;3.97;;;2.13;;
77170;SDS011;66144;50.020;14.422;2023-04-25T01:33:07;6.00;;;2.60;;
77170;SDS011;66144;50.020;14.422;2023-04-25T01:35:37;4.57;;;2.38;;
77170;SDS011;66144;50.020;14.422;2023-04-25T01:38:06;3.67;;;2.15;;
77170;SDS011;66144;50.020;14.422;2023-04-25T01:40:33;4.03;;;2.92;;
77170;SDS011;66144;50.020;14.422;2023-04-25T01:43:03;4.15;;;2.25;;
77170;SDS011;66144;50.020;14.422;2023-04-25T01:45:31;4.70;;;2.22;;
77170;SDS011;66144;50.020;14.422;2023-04-25T01:47:59;4.80;;;2.38;;
77170;SDS011;66144;50.020;14.422;2023-04-25T01:50:26;5.15;;;3.05;;
77170;SDS011;66144;50.020;14.422;2023-04-25T01:52:55;5.10;;;2.33;;
77170;SDS011;66144;50.020;14.422;2023-04-25T01:55:24;5.93;;;2.60;;
77170;SDS011;66144;50.020;14.422;2023-04-25T01:57:52;4.45;;;2.47;;
77170;SDS011;66144;50.020;14.422;2023-04-25T02:00:20;4.80;;;2.70;;
77170;SDS011;66144;50.020;14.422;2023-04-25T02:02:49;5.22;;;3.08;;
77170;SDS011;66144;50.020;14.422;2023-04-25T02:05:19;4.80;;;2.42;;
77170;SDS011;66144;50.020;14.422;2023-04-25T02:07:48;5.82;;;2.95;;
77170;SDS011;66144;50.020;14.422;2023-04-25T02:10:16;5.28;;;2.78;;
77170;SDS011;66144;50.020;14.422;2023-04-25T02:12:43;5.05;;;3.25;;
77170;SDS011;66144;50.020;14.422;2023-04-25T02:15:13;7.07;;;3.08;;
77170;SDS011;66144;50.020;14.422;2023-04-25T02:17:46;6.40;;;3.15;;
77170;SDS011;66144;50.020;14.422;2023-04-25T02:20:14;6.72;;;2.90;;
77170;SDS011;66144;50.020;14.422;2023-04-25T02:22:45;7.25;;;3.55;;
77170;SDS011;66144;50.020;14.422;2023-04-25T02:25:13;4.10;;;2.67;;
77170;SDS011;66144;50.020;14.422;2023-04-25T02:27:41;7.25;;;3.40;;
77170;SDS011;66144;50.020;14.422;2023-04-25T02:30:09;5.60;;;2.72;;
77170;SDS011;66144;50.020;14.422;2023-04-25T02:32:38;4.50;;;2.80;;
77170;SDS011;66144;50.020;14.422;2023-04-25T02:35:07;6.40;;;3.40;;
77170;SDS011;66144;50.020;14.422;2023-04-25T02:37:36;5.53;;;3.03;;
77170;SDS011;66144;50.020;14.422;2023-04-25T02:40:05;4.68;;;2.80;;
77170;SDS011;66144;50.020;14.422;2023-04-25T02:42:33;4.43;;;2.85;;
77170;SDS011;66144;50.020;14.422;2023-04-25T02:45:02;5.93;;;2.60;;
77170;SDS011;66144;50.020;14.422;2023-04-25T02:47:30;5.00;;;2.45;;
77170;SDS011;66144;50.020;14.422;2023-04-25T02:49:58;4.32;;;2.55;;
77170;SDS011;66144;50.020;14.422;2023-04-25T02:52:26;7.03;;;2.97;;
77170;SDS011;66144;50.020;14.422;2023-04-25T02:54:53;4.95;;;3.08;;
77170;SDS011;66144;50.020;14.422;2023-04-25T02:57:21;6.00;;;3.10;;
77170;SDS011;66144;50.020;14.422;2023-04-25T02:59:53;4.60;;;2.88;;
77170;SDS011;66144;50.020;14.422;2023-04-25T03:02:19;5.88;;;3.10;;
77170;SDS011;66144;50.020;14.422;2023-04-25T03:04:44;7.25;;;3.13;;
77170;SDS011;66144;50.020;14.422;2023-04-25T03:07:11;6.03;;;2.92;;
77170;SDS011;66144;50.020;14.422;2023-04-25T03:09:37;6.68;;;3.08;;
77170;SDS011;66144;50.020;14.422;2023-04-25T03:12:05;7.05;;;2.90;;
77170;SDS011;66144;50.020;14.422;2023-04-25T03:14:38;5.75;;;3.10;;
77170;SDS011;66144;50.020;14.422;2023-04-25T03:17:05;11.00;;;3.17;;
77170;SDS011;66144;50.020;14.422;2023-04-25T03:19:33;6.90;;;3.40;;
77170;SDS011;66144;50.020;14.422;2023-04-25T03:22:01;5.85;;;3.50;;
77170;SDS011;66144;50.020;14.422;2023-04-25T03:24:29;7.85;;;3.60;;
77170;SDS011;66144;50.020;14.422;2023-04-25T03:26:57;7.30;;;3.08;;
77170;SDS011;66144;50.020;14.422;2023-04-25T03:29:26;4.43;;;2.75;;
77170;SDS011;66144;50.020;14.422;2023-04-25T03:31:55;5.65;;;3.28;;
77170;SDS011;66144;50.020;14.422;2023-04-25T03:34:23;6.43;;;3.53;;
77170;SDS011;66144;50.020;14.422;2023-04-25T03:36:52;4.47;;;2.92;;
77170;SDS011;66144;50.020;14.422;2023-04-25T03:39:26;6.47;;;3.40;;
77170;SDS011;66144;50.020;14.422;2023-04-25T03:41:55;5.53;;;2.95;;
77170;SDS011;66144;50.020;14.422;2023-04-25T03:44:23;6.13;;;3.28;;
77170;SDS011;66144;50.020;14.422;2023-04-25T03:46:52;6.47;;;3.35;;
77170;SDS011;66144;50.020;14.422;2023-04-25T03:49:21;6.22;;;3.00;;
77170;SDS011;66144;50.020;14.422;2023-04-25T03:51:49;5.93;;;3.00;;
77170;SDS011;66144;50.020;14.422;2023-04-25T03:54:17;7.03;;;3.65;;
77170;SDS011;66144;50.020;14.422;2023-04-25T03:56:43;7.00;;;3.05;;
77170;SDS011;66144;50.020;14.422;2023-04-25T03:59:09;6.03;;;3.63;;
77170;SDS011;66144;50.020;14.422;2023-04-25T04:01:35;6.03;;;2.90;;
77170;SDS011;66144;50.020;14.422;2023-04-25T04:04:02;4.85;;;3.05;;
77170;SDS011;66144;50.020;14.422;2023-04-25T04:06:30;6.82;;;3.20;;
77170;SDS011;66144;50.020;14.422;2023-04-25T04:09:00;8.32;;;4.05;;
77170;SDS011;66144;50.020;14.422;2023-04-25T04:11:29;7.50;;;3.80;;
77170;SDS011;66144;50.020;14.422;2023-04-25T04:13:58;8.05;;;4.25;;
77170;SDS011;66144;50.020;14.422;2023-04-25T04:16:28;8.10;;;3.70;;
77170;SDS011;66144;50.020;14.422;2023-04-25T04:18:55;7.05;;;4.20;;
77170;SDS011;66144;50.020;14.422;2023-04-25T04:21:24;7.10;;;3.45;;
77170;SDS011;66144;50.020;14.422;2023-04-25T04:23:53;6.97;;;4.68;;
77170;SDS011;66144;50.020;14.422;2023-04-25T04:26:21;6.90;;;3.88;;
77170;SDS011;66144;50.020;14.422;2023-04-25T04:28:51;5.95;;;4.00;;
77170;SDS011;66144;50.020;14.422;2023-04-25T04:31:20;10.15;;;4.05;;
77170;SDS011;66144;50.020;14.422;2023-04-25T04:33:49;7.97;;;3.95;;
77170;SDS011;66144;50.020;14.422;2023-04-25T04:36:17;6.22;;;3.50;;
77170;SDS011;66144;50.020;14.422;2023-04-25T04:38:48;6.75;;;3.80;;
77170;SDS011;66144;50.020;14.422;2023-04-25T04:41:17;6.70;;;3.50;;
77170;SDS011;66144;50.020;14.422;2023-04-25T04:43:46;10.48;;;4.63;;
77170;SDS011;66144;50.020;14.422;2023-04-25T04:46:15;10.05;;;4.70;;
77170;SDS011;66144;50.020;14.422;2023-04-25T04:48:44;8.07;;;4.38;;
77170;SDS011;66144;50.020;14.422;2023-04-25T04:51:11;6.75;;;3.90;;
77170;SDS011;66144;50.020;14.422;2023-04-25T04:53:38;7.60;;;3.83;;
77170;SDS011;66144;50.020;14.422;2023-04-25T04:56:06;7.32;;;4.00;;
77170;SDS011;66144;50.020;14.422;2023-04-25T04:58:34;7.72;;;4.35;;
77170;SDS011;66144;50.020;14.422;2023-04-25T05:01:02;8.50;;;4.00;;
77170;SDS011;66144;50.020;14.422;2023-04-25T05:03:32;8.60;;;4.03;;
77170;SDS011;66144;50.020;14.422;2023-04-25T05:06:01;7.00;;;3.97;;
77170;SDS011;66144;50.020;14.422;2023-04-25T05:08:28;7.00;;;4.10;;
77170;SDS011;66144;50.020;14.422;2023-04-25T05:10:55;8.43;;;4.07;;
77170;SDS011;66144;50.020;14.422;2023-04-25T05:13:22;7.00;;;4.35;;
77170;SDS011;66144;50.020;14.422;2023-04-25T05:15:50;10.02;;;4.57;;
77170;SDS011;66144;50.020;14.422;2023-04-25T05:18:19;11.25;;;4.15;;
77170;SDS011;66144;50.020;14.422;2023-04-25T05:20:46;7.63;;;4.45;;
77170;SDS011;66144;50.020;14.422;2023-04-25T05:23:14;8.32;;;4.85;;
77170;SDS011;66144;50.020;14.422;2023-04-25T05:25:42;8.27;;;3.92;;
77170;SDS011;66144;50.020;14.422;2023-04-25T05:28:12;11.85;;;5.32;;
77170;SDS011;66144;50.020;14.422;2023-04-25T05:30:43;7.90;;;4.35;;
77170;SDS011;66144;50.020;14.422;2023-04-25T05:33:20;7.45;;;4.30;;
77170;SDS011;66144;50.020;14.422;2023-04-25T05:35:48;9.38;;;4.95;;
77170;SDS011;66144;50.020;14.422;2023-04-25T05:38:17;9.38;;;4.65;;
77170;SDS011;66144;50.020;14.422;2023-04-25T05:40:44;8.43;;;4.25;;
77170;SDS011;66144;50.020;14.422;2023-04-25T05:43:12;6.75;;;4.57;;
77170;SDS011;66144;50.020;14.422;2023-04-25T05:45:43;7.55;;;4.20;;
77170;SDS011;66144;50.020;14.422;2023-04-25T05:48:15;8.25;;;4.07;;
77170;SDS011;66144;50.020;14.422;2023-04-25T05:50:43;7.65;;;4.15;;
77170;SDS011;66144;50.020;14.422;2023-04-25T05:53:10;8.52;;;4.80;;
77170;SDS011;66144;50.020;14.422;2023-04-25T05:55:41;7.78;;;4.40;;
77170;SDS011;66144;50.020;14.422;2023-04-25T05:58:09;7.85;;;4.30;;
77170;SDS011;66144;50.020;14.422;2023-04-25T06:00:37;6.75;;;4.32;;
77170;SDS011;66144;50.020;14.422;2023-04-25T06:03:07;7.53;;;4.18;;
77170;SDS011;66144;50.020;14.422;2023-04-25T06:05:43;7.50;;;3.85;;
77170;SDS011;66144;50.020;14.422;2023-04-25T06:08:14;8.02;;;3.88;;
77170;SDS011;66144;50.020;14.422;2023-04-25T06:10:49;8.02;;;4.55;;
77170;SDS011;66144;50.020;14.422;2023-04-25T06:13:17;5.93;;;3.88;;
77170;SDS011;66144;50.020;14.422;2023-04-25T06:15:44;6.75;;;3.72;;
77170;SDS011;66144;50.020;14.422;2023-04-25T06:18:19;9.07;;;4.40;;
77170;SDS011;66144;50.020;14.422;2023-04-25T06:20:51;6.75;;;4.53;;
77170;SDS011;66144;50.020;14.422;2023-04-25T06:23:18;6.40;;;4.15;;
77170;SDS011;66144;50.020;14.422;2023-04-25T06:25:46;6.30;;;3.97;;
77170;SDS011;66144;50.020;14.422;2023-04-25T06:28:14;6.50;;;4.25;;
77170;SDS011;66144;50.020;14.422;2023-04-25T06:30:41;8.95;;;4.30;;
77170;SDS011;66144;50.020;14.422;2023-04-25T06:33:09;9.73;;;4.90;;
77170;SDS011;66144;50.020;14.422;2023-04-25T06:35:36;6.00;;;3.60;;
77170;SDS011;66144;50.020;14.422;2023-04-25T06:38:03;7.40;;;3.95;;
77170;SDS011;66144;50.020;14.422;2023-04-25T06:40:32;7.20;;;3.90;;
77170;SDS011;66144;50.020;14.422;2023-04-25T06:43:05;7.53;;;4.13;;
77170;SDS011;66144;50.020;14.422;2023-04-25T06:45:33;8.95;;;4.35;;
77170;SDS011;66144;50.020;14.422;2023-04-25T06:48:01;7.85;;;4.18;;
77170;SDS011;66144;50.020;14.422;2023-04-25T06:50:29;6.47;;;4.30;;
77170;SDS011;66144;50.020;14.422;2023-04-25T06:52:56;6.55;;;4.47;;
77170;SDS011;66144;50.020;14.422;2023-04-25T06:55:24;7.00;;;4.18;;
77170;SDS011;66144;50.020;14.422;2023-04-25T06:57:50;6.85;;;4.32;;
77170;SDS011;66144;50.020;14.422;2023-04-25T07:00:17;8.25;;;3.97;;
77170;SDS011;66144;50.020;14.422;2023-04-25T07:02:44;6.95;;;4.47;;
77170;SDS011;66144;50.020;14.422;2023-04-25T07:05:12;7.97;;;4.28;;
77170;SDS011;66144;50.020;14.422;2023-04-25T07:07:39;9.07;;;4.43;;
77170;SDS011;66144;50.020;14.422;2023-04-25T07:10:06;7.30;;;3.90;;
77170;SDS011;66144;50.020;14.422;2023-04-25T07:12:35;7.75;;;4.50;;
77170;SDS011;66144;50.020;14.422;2023-04-25T07:15:03;6.88;;;5.20;;
77170;SDS011;66144;50.020;14.422;2023-04-25T07:17:33;8.38;;;4.50;;
77170;SDS011;66144;50.020;14.422;2023-04-25T07:20:01;9.27;;;4.65;;
77170;SDS011;66144;50.020;14.422;2023-04-25T07:22:29;7.03;;;3.95;;
77170;SDS011;66144;50.020;14.422;2023-04-25T07:24:57;9.27;;;4.00;;
77170;SDS011;66144;50.020;14.422;2023-04-25T07:27:24;7.07;;;4.53;;
77170;SDS011;66144;50.020;14.422;2023-04-25T07:29:52;7.95;;;4.55;;
77170;SDS011;66144;50.020;14.422;2023-04-25T07:32:20;8.70;;;4.03;;
77170;SDS011;66144;50.020;14.422;2023-04-25T07:34:48;9.65;;;4.32;;
77170;SDS011;66144;50.020;14.422;2023-04-25T07:37:16;11.27;;;5.28;;
77170;SDS011;66144;50.020;14.422;2023-04-25T07:39:44;5.93;;;4.20;;
77170;SDS011;66144;50.020;14.422;2023-04-25T07:42:13;15.48;;;4.60;;
77170;SDS011;66144;50.020;14.422;2023-04-25T07:44:41;6.55;;;4.20;;
77170;SDS011;66144;50.020;14.422;2023-04-25T07:47:10;6.47;;;4.05;;
77170;SDS011;66144;50.020;14.422;2023-04-25T07:49:38;7.50;;;4.63;;
77170;SDS011;66144;50.020;14.422;2023-04-25T07:52:06;6.78;;;4.07;;
77170;SDS011;66144;50.020;14.422;2023-04-25T07:54:34;10.63;;;4.40;;
77170;SDS011;66144;50.020;14.422;2023-04-25T07:57:01;5.95;;;3.97;;
77170;SDS011;66144;50.020;14.422;2023-04-25T07:59:28;6.18;;;4.10;;
77170;SDS011;66144;50.020;14.422;2023-04-25T08:01:56;6.43;;;4.32;;
77170;SDS011;66144;50.020;14.422;2023-04-25T08:04:24;5.97;;;3.88;;
77170;SDS011;66144;50.020;14.422;2023-04-25T08:06:53;6.65;;;4.00;;
77170;SDS011;66144;50.020;14.422;2023-04-25T08:09:21;8.43;;;3.80;;
77170;SDS011;66144;50.020;14.422;2023-04-25T08:11:49;5.82;;;4.10;;
77170;SDS011;66144;50.020;14.422;2023-04-25T08:14:16;9.27;;;4.20;;
77170;SDS011;66144;50.020;14.422;2023-04-25T08:16:43;6.22;;;4.10;;
77170;SDS011;66144;50.020;14.422;2023-04-25T08:19:11;9.73;;;3.75;;
77170;SDS011;66144;50.020;14.422;2023-04-25T08:21:39;7.40;;;4.65;;
77170;SDS011;66144;50.020;14.422;2023-04-25T08:24:07;6.60;;;4.07;;
77170;SDS011;66144;50.020;14.422;2023-04-25T08:26:34;5.72;;;4.10;;
77170;SDS011;66144;50.020;14.422;2023-04-25T08:29:04;5.28;;;3.95;;
77170;SDS011;66144;50.020;14.422;2023-04-25T08:31:32;6.68;;;4.68;;
77170;SDS011;66144;50.020;14.422;2023-04-25T08:34:00;5.57;;;3.65;;
77170;SDS011;66144;50.020;14.422;2023-04-25T08:36:27;7.75;;;4.45;;
77170;SDS011;66144;50.020;14.422;2023-04-25T08:38:54;7.63;;;4.07;;
77170;SDS011;66144;50.020;14.422;2023-04-25T08:41:22;6.38;;;3.67;;
77170;SDS011;66144;50.020;14.422;2023-04-25T08:43:50;5.95;;;3.63;;
77170;SDS011;66144;50.020;14.422;2023-04-25T08:46:19;4.97;;;3.30;;
77170;SDS011;66144;50.020;14.422;2023-04-25T08:48:47;5.45;;;3.70;;
77170;SDS011;66144;50.020;14.422;2023-04-25T08:51:25;5.57;;;3.70;;
77170;SDS011;66144;50.020;14.422;2023-04-25T08:53:59;6.90;;;3.30;;
77170;SDS011;66144;50.020;14.422;2023-04-25T08:56:35;4.60;;;3.30;;
77170;SDS011;66144;50.020;14.422;2023-04-25T08:59:05;6.05;;;3.38;;
77170;SDS011;66144;50.020;14.422;2023-04-25T09:01:34;4.85;;;2.85;;
77170;SDS011;66144;50.020;14.422;2023-04-25T09:04:01;4.82;;;3.08;;
77170;SDS011;66144;50.020;14.422;2023-04-25T09:06:29;4.63;;;2.72;;
77170;SDS011;66144;50.020;14.422;2023-04-25T09:09:02;3.92;;;2.47;;
77170;SDS011;66144;50.020;14.422;2023-04-25T09:11:34;4.75;;;2.40;;
77170;SDS011;66144;50.020;14.422;2023-04-25T09:14:12;6.15;;;2.67;;
77170;SDS011;66144;50.020;14.422;2023-04-25T09:22:03;5.78;;;3.22;;
77170;SDS011;66144;50.020;14.422;2023-04-25T09:26:58;3.70;;;2.50;;
77170;SDS011;66144;50.020;14.422;2023-04-25T09:29:34;6.10;;;3.63;;
77170;SDS011;66144;50.020;14.422;2023-04-25T09:34:41;4.95;;;2.92;;
77170;SDS011;66144;50.020;14.422;2023-04-25T09:37:16;5.30;;;3.10;;
77170;SDS011;66144;50.020;14.422;2023-04-25T09:39:47;6.10;;;3.30;;
77170;SDS011;66144;50.020;14.422;2023-04-25T09:42:17;5.10;;;2.97;;
77170;SDS011;66144;50.020;14.422;2023-04-25T09:44:48;6.88;;;3.35;;
77170;SDS011;66144;50.020;14.422;2023-04-25T09:47:17;5.13;;;2.53;;
77170;SDS011;66144;50.020;14.422;2023-04-25T09:49:47;5.07;;;2.67;;
77170;SDS011;66144;50.020;14.422;2023-04-25T09:52:17;4.55;;;2.90;;
77170;SDS011;66144;50.020;14.422;2023-04-25T09:54:48;6.85;;;3.20;;
77170;SDS011;66144;50.020;14.422;2023-04-25T09:57:21;6.15;;;3.53;;
77170;SDS011;66144;50.020;14.422;2023-04-25T09:59:52;5.88;;;3.50;;
77170;SDS011;66144;50.020;14.422;2023-04-25T10:02:22;6.57;;;3.80;;
77170;SDS011;66144;50.020;14.422;2023-04-25T10:04:52;8.55;;;3.92;;
77170;SDS011;66144;50.020;14.422;2023-04-25T10:07:22;5.10;;;3.70;;
77170;SDS011;66144;50.020;14.422;2023-04-25T10:10:01;6.97;;;4.05;;
77170;SDS011;66144;50.020;14.422;2023-04-25T10:12:30;5.45;;;3.85;;
77170;SDS011;66144;50.020;14.422;2023-04-25T10:15:01;6.00;;;4.00;;
77170;SDS011;66144;50.020;14.422;2023-04-25T10:17:31;6.25;;;4.18;;
77170;SDS011;66144;50.020;14.422;2023-04-25T10:20:00;6.57;;;3.67;;
77170;SDS011;66144;50.020;14.422;2023-04-25T10:22:36;6.43;;;3.97;;
77170;SDS011;66144;50.020;14.422;2023-04-25T10:25:13;6.90;;;4.13;;
77170;SDS011;66144;50.020;14.422;2023-04-25T10:27:41;8.98;;;4.22;;
77170;SDS011;66144;50.020;14.422;2023-04-25T10:30:15;7.15;;;3.45;;
77170;SDS011;66144;50.020;14.422;2023-04-25T10:32:44;8.25;;;3.67;;
77170;SDS011;66144;50.020;14.422;2023-04-25T10:35:33;5.30;;;3.63;;
77170;SDS011;66144;50.020;14.422;2023-04-25T10:40:40;5.95;;;3.50;;
77170;SDS011;66144;50.020;14.422;2023-04-25T10:46:01;4.60;;;2.97;;
77170;SDS011;66144;50.020;14.422;2023-04-25T10:48:43;4.93;;;3.03;;
77170;SDS011;66144;50.020;14.422;2023-04-25T10:51:25;5.05;;;2.58;;
77170;SDS011;66144;50.020;14.422;2023-04-25T10:53:58;3.30;;;2.10;;
77170;SDS011;66144;50.020;14.422;2023-04-25T10:56:30;4.13;;;2.50;;
77170;SDS011;66144;50.020;14.422;2023-04-25T10:59:18;3.80;;;2.30;;
77170;SDS011;66144;50.020;14.422;2023-04-25T11:01:48;4.00;;;2.53;;
77170;SDS011;66144;50.020;14.422;2023-04-25T11:12:00;4.68;;;2.75;;
77170;SDS011;66144;50.020;14.422;2023-04-25T11:14:28;4.72;;;2.90;;
77170;SDS011;66144;50.020;14.422;2023-04-25T11:16:57;5.90;;;3.33;;
77170;SDS011;66144;50.020;14.422;2023-04-25T11:19:29;6.28;;;4.00;;
77170;SDS011;66144;50.020;14.422;2023-04-25T11:22:01;6.68;;;4.18;;
77170;SDS011;66144;50.020;14.422;2023-04-25T11:24:31;5.68;;;3.95;;
77170;SDS011;66144;50.020;14.422;2023-04-25T11:27:03;4.90;;;3.83;;
77170;SDS011;66144;50.020;14.422;2023-04-25T11:29:33;5.68;;;4.05;;
77170;SDS011;66144;50.020;14.422;2023-04-25T11:32:03;8.35;;;4.50;;
77170;SDS011;66144;50.020;14.422;2023-04-25T11:34:32;5.10;;;3.97;;
77170;SDS011;66144;50.020;14.422;2023-04-25T11:37:01;6.78;;;4.03;;
77170;SDS011;66144;50.020;14.422;2023-04-25T11:39:30;6.47;;;4.00;;
77170;SDS011;66144;50.020;14.422;2023-04-25T11:41:58;5.90;;;3.78;;
77170;SDS011;66144;50.020;14.422;2023-04-25T11:44:27;6.95;;;4.30;;
77170;SDS011;66144;50.020;14.422;2023-04-25T11:46:56;9.60;;;4.43;;
77170;SDS011;66144;50.020;14.422;2023-04-25T11:49:24;5.60;;;3.50;;
77170;SDS011;66144;50.020;14.422;2023-04-25T11:51:58;5.30;;;3.00;;
77170;SDS011;66144;50.020;14.422;2023-04-25T11:54:25;7.63;;;2.90;;
77170;SDS011;66144;50.020;14.422;2023-04-25T11:56:52;3.67;;;2.38;;
77170;SDS011;66144;50.020;14.422;2023-04-25T11:59:22;4.40;;;2.50;;
77170;SDS011;66144;50.020;14.422;2023-04-25T12:01:51;3.97;;;2.20;;
77170;SDS011;66144;50.020;14.422;2023-04-25T12:04:22;4.53;;;2.25;;
77170;SDS011;66144;50.020;14.422;2023-04-25T12:06:52;3.08;;;1.73;;
77170;SDS011;66144;50.020;14.422;2023-04-25T12:09:31;6.03;;;2.33;;
77170;SDS011;66144;50.020;14.422;2023-04-25T12:12:00;3.15;;;1.88;;
77170;SDS011;66144;50.020;14.422;2023-04-25T12:14:29;3.58;;;1.95;;
77170;SDS011;66144;50.020;14.422;2023-04-25T12:17:02;3.30;;;1.77;;
77170;SDS011;66144;50.020;14.422;2023-04-25T12:19:34;3.60;;;1.90;;
77170;SDS011;66144;50.020;14.422;2023-04-25T12:22:18;3.83;;;2.28;;
77170;SDS011;66144;50.020;14.422;2023-04-25T12:24:46;3.55;;;1.95;;
77170;SDS011;66144;50.020;14.422;2023-04-25T12:27:15;3.05;;;2.03;;
77170;SDS011;66144;50.020;14.422;2023-04-25T12:29:54;6.22;;;2.45;;
77170;SDS011;66144;50.020;14.422;2023-04-25T12:32:22;3.90;;;2.67;;
77170;SDS011;66144;50.020;14.422;2023-04-25T12:34:52;3.15;;;2.08;;
77170;SDS011;66144;50.020;14.422;2023-04-25T12:37:21;4.18;;;2.20;;
77170;SDS011;66144;50.020;14.422;2023-04-25T12:39:49;5.60;;;2.10;;
77170;SDS011;66144;50.020;14.422;2023-04-25T12:42:17;4.00;;;2.20;;
77170;SDS011;66144;50.020;14.422;2023-04-25T12:44:44;2.90;;;1.83;;
77170;SDS011;66144;50.020;14.422;2023-04-25T12:47:12;4.57;;;2.40;;
77170;SDS011;66144;50.020;14.422;2023-04-25T12:49:40;3.85;;;2.20;;
77170;SDS011;66144;50.020;14.422;2023-04-25T12:52:08;4.03;;;2.20;;
77170;SDS011;66144;50.020;14.422;2023-04-25T12:54:35;3.38;;;2.40;;
77170;SDS011;66144;50.020;14.422;2023-04-25T12:57:04;4.30;;;2.58;;
77170;SDS011;66144;50.020;14.422;2023-04-25T12:59:32;5.90;;;2.28;;
77170;SDS011;66144;50.020;14.422;2023-04-25T13:01:59;3.03;;;2.03;;
77170;SDS011;66144;50.020;14.422;2023-04-25T13:04:26;6.07;;;2.50;;
77170;SDS011;66144;50.020;14.422;2023-04-25T13:06:53;6.15;;;2.50;;
77170;SDS011;66144;50.020;14.422;2023-04-25T13:09:21;3.55;;;2.33;;
77170;SDS011;66144;50.020;14.422;2023-04-25T13:11:49;5.68;;;2.58;;
77170;SDS011;66144;50.020;14.422;2023-04-25T13:14:17;5.97;;;2.42;;
77170;SDS011;66144;50.020;14.422;2023-04-25T13:16:44;4.22;;;2.40;;
77170;SDS011;66144;50.020;14.422;2023-04-25T13:19:14;7.22;;;3.10;;
77170;SDS011;66144;50.020;14.422;2023-04-25T13:21:42;4.57;;;2.42;;
77170;SDS011;66144;50.020;14.422;2023-04-25T13:24:10;7.30;;;3.30;;
77170;SDS011;66144;50.020;14.422;2023-04-25T13:26:36;6.57;;;2.80;;
77170;SDS011;66144;50.020;14.422;2023-04-25T13:29:04;4.65;;;2.38;;
77170;SDS011;66144;50.020;14.422;2023-04-25T13:31:32;16.65;;;3.40;;
77170;SDS011;66144;50.020;14.422;2023-04-25T13:34:00;4.43;;;2.58;;
77170;SDS011;66144;50.020;14.422;2023-04-25T13:36:29;5.35;;;2.60;;
77170;SDS011;66144;50.020;14.422;2023-04-25T13:38:57;4.35;;;2.42;;
77170;SDS011;66144;50.020;14.422;2023-04-25T13:41:25;4.18;;;2.35;;
77170;SDS011;66144;50.020;14.422;2023-04-25T13:43:51;4.40;;;2.50;;
77170;SDS011;66144;50.020;14.422;2023-04-25T13:46:18;6.45;;;3.35;;
77170;SDS011;66144;50.020;14.422;2023-04-25T13:48:46;5.80;;;2.53;;
77170;SDS011;66144;50.020;14.422;2023-04-25T13:51:17;5.30;;;2.60;;
77170;SDS011;66144;50.020;14.422;2023-04-25T13:53:45;4.38;;;2.40;;
77170;SDS011;66144;50.020;14.422;2023-04-25T13:56:14;5.05;;;2.28;;
77170;SDS011;66144;50.020;14.422;2023-04-25T13:58:43;4.65;;;2.30;;
77170;SDS011;66144;50.020;14.422;2023-04-25T14:01:10;4.25;;;1.92;;
77170;SDS011;66144;50.020;14.422;2023-04-25T14:03:38;3.30;;;2.25;;
77170;SDS011;66144;50.020;14.422;2023-04-25T14:06:06;3.15;;;1.90;;
77170;SDS011;66144;50.020;14.422;2023-04-25T14:08:34;5.28;;;2.30;;
77170;SDS011;66144;50.020;14.422;2023-04-25T14:11:03;5.82;;;2.55;;
77170;SDS011;66144;50.020;14.422;2023-04-25T14:13:35;6.15;;;2.38;;
77170;SDS011;66144;50.020;14.422;2023-04-25T14:16:01;7.63;;;2.40;;
77170;SDS011;66144;50.020;14.422;2023-04-25T14:18:28;6.57;;;2.25;;
77170;SDS011;66144;50.020;14.422;2023-04-25T14:20:55;3.85;;;2.58;;
77170;SDS011;66144;50.020;14.422;2023-04-25T14:23:22;4.00;;;2.40;;
77170;SDS011;66144;50.020;14.422;2023-04-25T14:25:50;4.55;;;2.60;;
77170;SDS011;66144;50.020;14.422;2023-04-25T14:28:18;4.47;;;2.08;;
77170;SDS011;66144;50.020;14.422;2023-04-25T14:30:47;4.30;;;2.10;;
77170;SDS011;66144;50.020;14.422;2023-04-25T14:33:14;4.25;;;2.30;;
77170;SDS011;66144;50.020;14.422;2023-04-25T14:35:43;4.15;;;2.30;;
77170;SDS011;66144;50.020;14.422;2023-04-25T14:38:11;5.30;;;2.17;;
77170;SDS011;66144;50.020;14.422;2023-04-25T14:40:40;5.45;;;2.10;;
77170;SDS011;66144;50.020;14.422;2023-04-25T14:43:07;3.40;;;1.67;;
77170;SDS011;66144;50.020;14.422;2023-04-25T14:45:38;4.85;;;1.80;;
77170;SDS011;66144;50.020;14.422;2023-04-25T14:48:07;2.88;;;1.92;;
77170;SDS011;66144;50.020;14.422;2023-04-25T14:50:35;3.28;;;1.70;;
77170;SDS011;66144;50.020;14.422;2023-04-25T14:53:03;4.78;;;1.92;;
77170;SDS011;66144;50.020;14.422;2023-04-25T14:55:31;4.28;;;1.98;;
77170;SDS011;66144;50.020;14.422;2023-04-25T14:57:59;2.90;;;2.00;;
77170;SDS011;66144;50.020;14.422;2023-04-25T15:00:28;4.25;;;2.20;;
77170;SDS011;66144;50.020;14.422;2023-04-25T15:05:25;4.70;;;1.90;;
77170;SDS011;66144;50.020;14.422;2023-04-25T15:07:52;3.28;;;1.52;;
77170;SDS011;66144;50.020;14.422;2023-04-25T15:10:21;5.40;;;1.98;;